KBFD/BFD METAR and TAF weather

Enter ICAO airport designator
Station Type Date Time Source
KBFD METAR 2019/04/25 21:53 UTC NOAA

KBFD 252153Z AUTO 18007KT 10SM OVC023 13/08 A2984 RMK AO2 SLP113 T01330083


Station Type Date Time Source
KBFD Decoded METAR 2019/04/25 21:53 UTC NOAA

BRADFORD REGIONAL AIRPORT, PA, United States (KBFD) 41-48N 078-38W 647M
Apr 25, 2019 - 05:53 PM EDT / 2019.04.25 2153 UTC
Wind: from the S (180 degrees) at 8 MPH (7 KT):0
Visibility: 10 mile(s):0
Sky conditions: overcast
Temperature: 55.9 F (13.3 C)
Dew Point: 46.9 F (8.3 C)
Relative Humidity: 71%
Pressure (altimeter): 29.84 in. Hg (1010 hPa)
ob: KBFD 252153Z AUTO 18007KT 10SM OVC023 13/08 A2984 RMK AO2 SLP113 T01330083
cycle: 22

Station Type Date Time Source
KBFD TAF 2019/04/25 19:39 UTC NOAA

TAF
AMD KBFD 251836Z 2519/2618 18007KT P6SM BKN030
FM252100 15005KT 5SM -SHRA BR OVC025
FM260600 16010KT 3SM -RA BR OVC010

Example: see airport list